Lafayette, North Carolina
Current Conditions -  °F | °C
As of 9:53 PM on Monday 26 Jan 2015 (Local Time) from KFAY Reporting Station
Overcast Overcast  
Wind Chill: 43°   Ceiling: 4800
Heat Index: 47°   Visibility: 10mi
Dew Point: 41°   Wind: 9mph
Humidity: 80%   Direction: 330°NNW
Pressure: 29.67"   Gusts: NA
Location:  35.0256°N, 79.0002°W
Report Text: KFAY 270253Z AUTO 33008KT 10SM SCT039 BKN048 OVC055 08/05 A2967 RMK AO2 SLP043 60000 T00830050 51010
Loading
Personal Weather Stations






























Interactive Weather Map New forecast layout! Learn more

10-Day Weather Forecast

Advertisements
Track Severe Weather on mobile